sensor_id;sensor_type;location;lat;lon;timestamp;P1;durP1;ratioP1;P2;durP2;ratioP2
19127;SDS011;9696;53.686;10.094;2023-11-19T00:02:06;6.23;;;3.70;;
19127;SDS011;9696;53.686;10.094;2023-11-19T00:04:36;7.37;;;3.97;;
19127;SDS011;9696;53.686;10.094;2023-11-19T00:07:06;4.70;;;2.80;;
19127;SDS011;9696;53.686;10.094;2023-11-19T00:09:39;6.37;;;3.63;;
19127;SDS011;9696;53.686;10.094;2023-11-19T00:12:11;5.57;;;3.20;;
19127;SDS011;9696;53.686;10.094;2023-11-19T00:14:41;5.03;;;2.77;;
19127;SDS011;9696;53.686;10.094;2023-11-19T00:17:11;3.67;;;2.67;;
19127;SDS011;9696;53.686;10.094;2023-11-19T00:19:41;6.00;;;3.33;;
19127;SDS011;9696;53.686;10.094;2023-11-19T00:22:10;5.07;;;2.47;;
19127;SDS011;9696;53.686;10.094;2023-11-19T00:24:46;3.20;;;2.40;;
19127;SDS011;9696;53.686;10.094;2023-11-19T00:27:16;3.90;;;2.73;;
19127;SDS011;9696;53.686;10.094;2023-11-19T00:29:46;3.10;;;2.10;;
19127;SDS011;9696;53.686;10.094;2023-11-19T00:35:13;7.20;;;2.43;;
19127;SDS011;9696;53.686;10.094;2023-11-19T00:37:43;6.40;;;2.73;;
19127;SDS011;9696;53.686;10.094;2023-11-19T00:40:16;3.43;;;2.43;;
19127;SDS011;9696;53.686;10.094;2023-11-19T00:42:49;3.87;;;2.23;;
19127;SDS011;9696;53.686;10.094;2023-11-19T00:45:21;2.43;;;1.90;;
19127;SDS011;9696;53.686;10.094;2023-11-19T00:47:50;3.60;;;2.20;;
19127;SDS011;9696;53.686;10.094;2023-11-19T00:50:27;3.03;;;2.10;;
19127;SDS011;9696;53.686;10.094;2023-11-19T00:53:02;3.40;;;2.43;;
19127;SDS011;9696;53.686;10.094;2023-11-19T00:55:32;3.50;;;2.20;;
19127;SDS011;9696;53.686;10.094;2023-11-19T00:58:12;2.67;;;1.77;;
19127;SDS011;9696;53.686;10.094;2023-11-19T01:00:46;3.53;;;2.10;;
19127;SDS011;9696;53.686;10.094;2023-11-19T01:03:16;3.47;;;2.13;;
19127;SDS011;9696;53.686;10.094;2023-11-19T01:05:46;2.50;;;1.57;;
19127;SDS011;9696;53.686;10.094;2023-11-19T01:08:16;2.03;;;1.03;;
19127;SDS011;9696;53.686;10.094;2023-11-19T01:10:47;2.83;;;1.80;;
19127;SDS011;9696;53.686;10.094;2023-11-19T01:13:22;1.43;;;1.27;;
19127;SDS011;9696;53.686;10.094;2023-11-19T01:15:51;2.17;;;1.70;;
19127;SDS011;9696;53.686;10.094;2023-11-19T01:18:42;1.90;;;1.20;;
19127;SDS011;9696;53.686;10.094;2023-11-19T01:21:11;0.93;;;0.83;;
19127;SDS011;9696;53.686;10.094;2023-11-19T01:27:43;1.30;;;1.10;;
19127;SDS011;9696;53.686;10.094;2023-11-19T01:30:13;1.10;;;1.00;;
19127;SDS011;9696;53.686;10.094;2023-11-19T01:32:48;1.77;;;1.27;;
19127;SDS011;9696;53.686;10.094;2023-11-19T01:38:15;1.50;;;1.00;;
19127;SDS011;9696;53.686;10.094;2023-11-19T01:40:44;1.50;;;0.90;;
19127;SDS011;9696;53.686;10.094;2023-11-19T01:46:04;1.00;;;0.90;;
19127;SDS011;9696;53.686;10.094;2023-11-19T01:48:38;1.40;;;0.97;;
19127;SDS011;9696;53.686;10.094;2023-11-19T01:51:11;0.83;;;0.80;;
19127;SDS011;9696;53.686;10.094;2023-11-19T01:53:50;0.80;;;0.80;;
19127;SDS011;9696;53.686;10.094;2023-11-19T01:56:20;2.80;;;1.17;;
19127;SDS011;9696;53.686;10.094;2023-11-19T01:58:57;1.40;;;0.97;;
19127;SDS011;9696;53.686;10.094;2023-11-19T02:01:27;2.03;;;1.10;;
19127;SDS011;9696;53.686;10.094;2023-11-19T02:03:58;1.10;;;0.73;;
19127;SDS011;9696;53.686;10.094;2023-11-19T02:06:28;1.07;;;0.97;;
19127;SDS011;9696;53.686;10.094;2023-11-19T02:09:00;0.80;;;0.77;;
19127;SDS011;9696;53.686;10.094;2023-11-19T02:11:40;0.67;;;0.53;;
19127;SDS011;9696;53.686;10.094;2023-11-19T02:14:13;0.87;;;0.80;;
19127;SDS011;9696;53.686;10.094;2023-11-19T02:16:43;0.87;;;0.67;;
19127;SDS011;9696;53.686;10.094;2023-11-19T02:19:14;1.33;;;0.70;;
19127;SDS011;9696;53.686;10.094;2023-11-19T02:21:45;1.03;;;0.73;;
19127;SDS011;9696;53.686;10.094;2023-11-19T02:24:14;0.60;;;0.57;;
19127;SDS011;9696;53.686;10.094;2023-11-19T02:26:51;0.70;;;0.70;;
19127;SDS011;9696;53.686;10.094;2023-11-19T02:29:28;0.60;;;0.60;;
19127;SDS011;9696;53.686;10.094;2023-11-19T02:31:58;0.50;;;0.50;;
19127;SDS011;9696;53.686;10.094;2023-11-19T02:34:34;1.27;;;0.73;;
19127;SDS011;9696;53.686;10.094;2023-11-19T02:37:03;0.40;;;0.40;;
19127;SDS011;9696;53.686;10.094;2023-11-19T02:39:33;0.60;;;0.50;;
19127;SDS011;9696;53.686;10.094;2023-11-19T02:42:03;0.70;;;0.50;;
19127;SDS011;9696;53.686;10.094;2023-11-19T02:44:34;0.60;;;0.60;;
19127;SDS011;9696;53.686;10.094;2023-11-19T02:47:05;0.67;;;0.50;;
19127;SDS011;9696;53.686;10.094;2023-11-19T02:49:38;0.80;;;0.70;;
19127;SDS011;9696;53.686;10.094;2023-11-19T02:52:08;0.60;;;0.60;;
19127;SDS011;9696;53.686;10.094;2023-11-19T02:54:39;0.30;;;0.30;;
19127;SDS011;9696;53.686;10.094;2023-11-19T02:57:08;0.47;;;0.40;;
19127;SDS011;9696;53.686;10.094;2023-11-19T02:59:50;0.50;;;0.50;;
19127;SDS011;9696;53.686;10.094;2023-11-19T03:02:19;0.67;;;0.50;;
19127;SDS011;9696;53.686;10.094;2023-11-19T03:04:49;0.53;;;0.53;;
19127;SDS011;9696;53.686;10.094;2023-11-19T03:07:19;0.50;;;0.50;;
19127;SDS011;9696;53.686;10.094;2023-11-19T03:09:49;1.00;;;0.67;;
19127;SDS011;9696;53.686;10.094;2023-11-19T03:12:19;1.37;;;0.50;;
19127;SDS011;9696;53.686;10.094;2023-11-19T03:14:50;0.40;;;0.40;;
19127;SDS011;9696;53.686;10.094;2023-11-19T03:17:19;0.83;;;0.53;;
19127;SDS011;9696;53.686;10.094;2023-11-19T03:19:52;1.17;;;0.50;;
19127;SDS011;9696;53.686;10.094;2023-11-19T03:22:21;0.97;;;0.60;;
19127;SDS011;9696;53.686;10.094;2023-11-19T03:24:51;0.80;;;0.60;;
19127;SDS011;9696;53.686;10.094;2023-11-19T03:27:23;1.00;;;0.70;;
19127;SDS011;9696;53.686;10.094;2023-11-19T03:29:54;1.67;;;0.70;;
19127;SDS011;9696;53.686;10.094;2023-11-19T03:32:23;0.63;;;0.63;;
19127;SDS011;9696;53.686;10.094;2023-11-19T03:34:53;0.60;;;0.57;;
19127;SDS011;9696;53.686;10.094;2023-11-19T03:37:23;0.83;;;0.60;;
19127;SDS011;9696;53.686;10.094;2023-11-19T03:39:53;0.73;;;0.60;;
19127;SDS011;9696;53.686;10.094;2023-11-19T03:42:22;0.70;;;0.60;;
19127;SDS011;9696;53.686;10.094;2023-11-19T03:44:52;1.73;;;0.90;;
19127;SDS011;9696;53.686;10.094;2023-11-19T03:47:25;0.97;;;0.87;;
19127;SDS011;9696;53.686;10.094;2023-11-19T03:49:54;0.83;;;0.70;;
19127;SDS011;9696;53.686;10.094;2023-11-19T03:52:24;1.23;;;1.00;;
19127;SDS011;9696;53.686;10.094;2023-11-19T03:54:58;1.10;;;1.00;;
19127;SDS011;9696;53.686;10.094;2023-11-19T03:57:28;1.23;;;1.07;;
19127;SDS011;9696;53.686;10.094;2023-11-19T03:59:59;1.73;;;1.20;;
19127;SDS011;9696;53.686;10.094;2023-11-19T04:02:38;1.30;;;1.20;;
19127;SDS011;9696;53.686;10.094;2023-11-19T04:05:08;1.10;;;1.00;;
19127;SDS011;9696;53.686;10.094;2023-11-19T04:07:40;1.80;;;1.40;;
19127;SDS011;9696;53.686;10.094;2023-11-19T04:10:18;1.47;;;1.10;;
19127;SDS011;9696;53.686;10.094;2023-11-19T04:12:49;1.23;;;1.13;;
19127;SDS011;9696;53.686;10.094;2023-11-19T04:15:30;1.10;;;1.00;;
19127;SDS011;9696;53.686;10.094;2023-11-19T04:18:00;1.87;;;1.07;;
19127;SDS011;9696;53.686;10.094;2023-11-19T04:20:30;2.13;;;1.50;;
19127;SDS011;9696;53.686;10.094;2023-11-19T04:23:00;1.70;;;1.30;;
19127;SDS011;9696;53.686;10.094;2023-11-19T04:25:30;1.80;;;1.27;;
19127;SDS011;9696;53.686;10.094;2023-11-19T04:28:00;1.80;;;1.60;;
19127;SDS011;9696;53.686;10.094;2023-11-19T04:30:32;2.43;;;1.77;;
19127;SDS011;9696;53.686;10.094;2023-11-19T04:33:03;2.03;;;1.67;;
19127;SDS011;9696;53.686;10.094;2023-11-19T04:35:32;1.43;;;1.33;;
19127;SDS011;9696;53.686;10.094;2023-11-19T04:38:08;2.37;;;1.93;;
19127;SDS011;9696;53.686;10.094;2023-11-19T04:40:38;4.10;;;1.80;;
19127;SDS011;9696;53.686;10.094;2023-11-19T04:43:08;2.80;;;2.00;;
19127;SDS011;9696;53.686;10.094;2023-11-19T04:45:39;2.87;;;1.90;;
19127;SDS011;9696;53.686;10.094;2023-11-19T04:48:15;3.37;;;2.00;;
19127;SDS011;9696;53.686;10.094;2023-11-19T04:50:45;2.27;;;1.83;;
19127;SDS011;9696;53.686;10.094;2023-11-19T04:53:15;1.80;;;1.60;;
19127;SDS011;9696;53.686;10.094;2023-11-19T04:55:44;2.40;;;1.83;;
19127;SDS011;9696;53.686;10.094;2023-11-19T05:01:14;5.07;;;3.17;;
19127;SDS011;9696;53.686;10.094;2023-11-19T05:04:03;3.73;;;2.50;;
19127;SDS011;9696;53.686;10.094;2023-11-19T05:06:33;3.87;;;2.53;;
19127;SDS011;9696;53.686;10.094;2023-11-19T05:09:04;4.37;;;3.00;;
19127;SDS011;9696;53.686;10.094;2023-11-19T05:11:34;6.13;;;3.60;;
19127;SDS011;9696;53.686;10.094;2023-11-19T05:14:17;4.60;;;3.63;;
19127;SDS011;9696;53.686;10.094;2023-11-19T05:16:51;6.23;;;3.93;;
19127;SDS011;9696;53.686;10.094;2023-11-19T05:19:21;5.10;;;3.73;;
19127;SDS011;9696;53.686;10.094;2023-11-19T05:21:50;9.90;;;3.73;;
19127;SDS011;9696;53.686;10.094;2023-11-19T05:24:20;7.73;;;4.87;;
19127;SDS011;9696;53.686;10.094;2023-11-19T05:26:49;6.60;;;4.17;;
19127;SDS011;9696;53.686;10.094;2023-11-19T05:29:20;10.27;;;4.93;;
19127;SDS011;9696;53.686;10.094;2023-11-19T05:35:59;11.07;;;5.90;;
19127;SDS011;9696;53.686;10.094;2023-11-19T05:38:30;14.83;;;5.70;;
19127;SDS011;9696;53.686;10.094;2023-11-19T05:41:01;10.07;;;5.97;;
19127;SDS011;9696;53.686;10.094;2023-11-19T05:43:32;12.60;;;6.77;;
19127;SDS011;9696;53.686;10.094;2023-11-19T05:46:02;10.70;;;5.37;;
19127;SDS011;9696;53.686;10.094;2023-11-19T05:48:46;13.57;;;5.87;;
19127;SDS011;9696;53.686;10.094;2023-11-19T05:51:17;25.87;;;6.13;;
19127;SDS011;9696;53.686;10.094;2023-11-19T05:53:48;11.77;;;6.17;;
19127;SDS011;9696;53.686;10.094;2023-11-19T05:56:20;9.07;;;6.27;;
19127;SDS011;9696;53.686;10.094;2023-11-19T05:58:50;13.17;;;7.10;;
19127;SDS011;9696;53.686;10.094;2023-11-19T06:01:19;14.50;;;6.50;;
19127;SDS011;9696;53.686;10.094;2023-11-19T06:03:49;11.53;;;6.97;;
19127;SDS011;9696;53.686;10.094;2023-11-19T06:06:22;12.57;;;7.07;;
19127;SDS011;9696;53.686;10.094;2023-11-19T06:08:54;10.80;;;6.13;;
19127;SDS011;9696;53.686;10.094;2023-11-19T06:11:37;16.50;;;6.80;;
19127;SDS011;9696;53.686;10.094;2023-11-19T06:14:08;10.53;;;6.90;;
19127;SDS011;9696;53.686;10.094;2023-11-19T06:16:38;11.73;;;6.13;;
19127;SDS011;9696;53.686;10.094;2023-11-19T06:19:08;13.10;;;7.27;;
19127;SDS011;9696;53.686;10.094;2023-11-19T06:21:40;13.47;;;7.57;;
19127;SDS011;9696;53.686;10.094;2023-11-19T06:24:11;12.63;;;6.83;;
19127;SDS011;9696;53.686;10.094;2023-11-19T06:26:41;13.87;;;6.80;;
19127;SDS011;9696;53.686;10.094;2023-11-19T06:29:10;13.50;;;7.33;;
19127;SDS011;9696;53.686;10.094;2023-11-19T06:31:47;13.53;;;7.13;;
19127;SDS011;9696;53.686;10.094;2023-11-19T06:34:17;19.20;;;8.37;;
19127;SDS011;9696;53.686;10.094;2023-11-19T06:36:47;14.00;;;7.70;;
19127;SDS011;9696;53.686;10.094;2023-11-19T06:42:15;12.40;;;7.20;;
19127;SDS011;9696;53.686;10.094;2023-11-19T06:44:47;13.97;;;7.63;;
19127;SDS011;9696;53.686;10.094;2023-11-19T06:47:18;25.13;;;8.30;;
19127;SDS011;9696;53.686;10.094;2023-11-19T06:49:51;22.00;;;8.07;;
19127;SDS011;9696;53.686;10.094;2023-11-19T06:52:23;12.43;;;6.87;;
19127;SDS011;9696;53.686;10.094;2023-11-19T06:54:52;17.73;;;7.40;;
19127;SDS011;9696;53.686;10.094;2023-11-19T06:57:34;19.77;;;7.57;;
19127;SDS011;9696;53.686;10.094;2023-11-19T07:00:05;13.87;;;6.60;;
19127;SDS011;9696;53.686;10.094;2023-11-19T07:02:35;16.67;;;6.60;;
19127;SDS011;9696;53.686;10.094;2023-11-19T07:14:19;18.97;;;4.43;;
19127;SDS011;9696;53.686;10.094;2023-11-19T07:16:50;13.33;;;4.70;;
19127;SDS011;9696;53.686;10.094;2023-11-19T07:19:25;10.53;;;2.80;;
19127;SDS011;9696;53.686;10.094;2023-11-19T07:25:23;15.27;;;2.63;;
19127;SDS011;9696;53.686;10.094;2023-11-19T07:42:54;7.63;;;2.73;;
19127;SDS011;9696;53.686;10.094;2023-11-19T07:47:56;17.30;;;2.53;;
19127;SDS011;9696;53.686;10.094;2023-11-19T07:50:28;18.43;;;3.07;;
19127;SDS011;9696;53.686;10.094;2023-11-19T07:56:28;12.73;;;2.37;;
19127;SDS011;9696;53.686;10.094;2023-11-19T07:58:59;10.40;;;2.20;;
19127;SDS011;9696;53.686;10.094;2023-11-19T08:01:28;22.50;;;4.20;;
19127;SDS011;9696;53.686;10.094;2023-11-19T08:04:10;14.50;;;3.83;;
19127;SDS011;9696;53.686;10.094;2023-11-19T08:06:40;24.27;;;3.80;;
19127;SDS011;9696;53.686;10.094;2023-11-19T08:09:16;17.40;;;2.50;;
19127;SDS011;9696;53.686;10.094;2023-11-19T08:11:47;10.73;;;2.10;;
19127;SDS011;9696;53.686;10.094;2023-11-19T08:14:19;28.70;;;2.90;;
19127;SDS011;9696;53.686;10.094;2023-11-19T08:16:51;24.30;;;3.27;;
19127;SDS011;9696;53.686;10.094;2023-11-19T08:19:21;23.33;;;2.97;;
19127;SDS011;9696;53.686;10.094;2023-11-19T08:24:48;19.00;;;2.63;;
19127;SDS011;9696;53.686;10.094;2023-11-19T08:27:20;22.17;;;2.47;;
19127;SDS011;9696;53.686;10.094;2023-11-19T08:30:11;14.90;;;3.17;;
19127;SDS011;9696;53.686;10.094;2023-11-19T08:32:42;31.80;;;4.17;;
19127;SDS011;9696;53.686;10.094;2023-11-19T08:35:12;21.43;;;3.07;;
19127;SDS011;9696;53.686;10.094;2023-11-19T08:37:43;20.80;;;3.17;;
19127;SDS011;9696;53.686;10.094;2023-11-19T08:40:14;12.20;;;2.80;;
19127;SDS011;9696;53.686;10.094;2023-11-19T08:42:45;16.67;;;2.90;;
19127;SDS011;9696;53.686;10.094;2023-11-19T08:45:22;19.60;;;2.87;;
19127;SDS011;9696;53.686;10.094;2023-11-19T08:47:51;15.60;;;3.20;;
19127;SDS011;9696;53.686;10.094;2023-11-19T08:50:36;16.40;;;3.27;;
19127;SDS011;9696;53.686;10.094;2023-11-19T08:53:05;21.43;;;3.60;;
19127;SDS011;9696;53.686;10.094;2023-11-19T08:55:53;15.47;;;2.77;;
19127;SDS011;9696;53.686;10.094;2023-11-19T08:58:24;31.50;;;3.10;;
19127;SDS011;9696;53.686;10.094;2023-11-19T09:00:54;20.60;;;3.10;;
19127;SDS011;9696;53.686;10.094;2023-11-19T09:03:26;24.93;;;3.53;;
19127;SDS011;9696;53.686;10.094;2023-11-19T09:06:00;24.23;;;2.97;;
19127;SDS011;9696;53.686;10.094;2023-11-19T09:08:35;16.90;;;2.57;;
19127;SDS011;9696;53.686;10.094;2023-11-19T09:11:06;25.43;;;3.03;;
19127;SDS011;9696;53.686;10.094;2023-11-19T09:13:40;18.40;;;3.17;;
19127;SDS011;9696;53.686;10.094;2023-11-19T09:16:09;18.10;;;2.60;;
19127;SDS011;9696;53.686;10.094;2023-11-19T09:18:40;41.60;;;3.70;;
19127;SDS011;9696;53.686;10.094;2023-11-19T09:24:06;23.60;;;3.27;;
19127;SDS011;9696;53.686;10.094;2023-11-19T09:26:39;22.47;;;3.57;;
19127;SDS011;9696;53.686;10.094;2023-11-19T09:29:10;19.83;;;3.20;;
19127;SDS011;9696;53.686;10.094;2023-11-19T09:31:44;15.77;;;3.23;;
19127;SDS011;9696;53.686;10.094;2023-11-19T09:34:14;13.70;;;2.70;;
19127;SDS011;9696;53.686;10.094;2023-11-19T09:36:46;24.77;;;3.73;;
19127;SDS011;9696;53.686;10.094;2023-11-19T09:39:18;36.93;;;4.10;;
19127;SDS011;9696;53.686;10.094;2023-11-19T09:41:49;18.70;;;3.60;;
19127;SDS011;9696;53.686;10.094;2023-11-19T09:44:22;31.20;;;3.87;;
19127;SDS011;9696;53.686;10.094;2023-11-19T09:47:05;24.87;;;3.13;;
19127;SDS011;9696;53.686;10.094;2023-11-19T09:49:37;11.87;;;2.63;;
19127;SDS011;9696;53.686;10.094;2023-11-19T09:52:08;36.37;;;4.20;;
19127;SDS011;9696;53.686;10.094;2023-11-19T09:54:38;31.47;;;3.27;;
19127;SDS011;9696;53.686;10.094;2023-11-19T09:57:07;24.00;;;4.00;;
19127;SDS011;9696;53.686;10.094;2023-11-19T09:59:42;24.93;;;3.67;;
19127;SDS011;9696;53.686;10.094;2023-11-19T10:02:13;23.37;;;3.53;;
19127;SDS011;9696;53.686;10.094;2023-11-19T10:04:44;27.37;;;4.00;;
19127;SDS011;9696;53.686;10.094;2023-11-19T10:07:17;26.33;;;3.33;;
19127;SDS011;9696;53.686;10.094;2023-11-19T10:09:48;23.05;;;3.83;;
19127;SDS011;9696;53.686;10.094;2023-11-19T10:12:42;29.40;;;3.87;;
19127;SDS011;9696;53.686;10.094;2023-11-19T10:15:17;20.17;;;2.30;;
19127;SDS011;9696;53.686;10.094;2023-11-19T10:17:54;33.20;;;4.17;;
19127;SDS011;9696;53.686;10.094;2023-11-19T10:20:24;23.37;;;3.13;;
19127;SDS011;9696;53.686;10.094;2023-11-19T10:22:54;35.83;;;3.83;;
19127;SDS011;9696;53.686;10.094;2023-11-19T10:25:25;22.93;;;4.37;;
19127;SDS011;9696;53.686;10.094;2023-11-19T10:27:56;31.95;;;5.07;;
19127;SDS011;9696;53.686;10.094;2023-11-19T10:30:27;26.20;;;4.33;;
19127;SDS011;9696;53.686;10.094;2023-11-19T10:33:04;24.47;;;3.60;;
19127;SDS011;9696;53.686;10.094;2023-11-19T10:35:50;27.70;;;3.70;;
19127;SDS011;9696;53.686;10.094;2023-11-19T10:38:24;24.55;;;3.63;;
19127;SDS011;9696;53.686;10.094;2023-11-19T10:40:55;19.95;;;2.70;;
19127;SDS011;9696;53.686;10.094;2023-11-19T10:43:26;23.10;;;3.35;;
19127;SDS011;9696;53.686;10.094;2023-11-19T10:45:58;21.67;;;2.97;;
19127;SDS011;9696;53.686;10.094;2023-11-19T10:48:38;24.87;;;3.13;;
19127;SDS011;9696;53.686;10.094;2023-11-19T10:51:08;16.93;;;2.73;;
19127;SDS011;9696;53.686;10.094;2023-11-19T10:53:38;22.43;;;3.63;;
19127;SDS011;9696;53.686;10.094;2023-11-19T10:56:10;31.73;;;4.53;;
19127;SDS011;9696;53.686;10.094;2023-11-19T10:58:44;18.50;;;3.75;;
19127;SDS011;9696;53.686;10.094;2023-11-19T11:01:18;29.88;;;3.30;;
19127;SDS011;9696;53.686;10.094;2023-11-19T11:03:49;15.85;;;2.97;;
19127;SDS011;9696;53.686;10.094;2023-11-19T11:06:21;26.98;;;4.05;;
19127;SDS011;9696;53.686;10.094;2023-11-19T11:08:52;30.43;;;4.37;;
19127;SDS011;9696;53.686;10.094;2023-11-19T11:11:22;19.87;;;2.47;;
19127;SDS011;9696;53.686;10.094;2023-11-19T11:13:54;27.67;;;4.00;;
19127;SDS011;9696;53.686;10.094;2023-11-19T11:16:27;24.37;;;2.97;;
19127;SDS011;9696;53.686;10.094;2023-11-19T11:18:58;33.67;;;3.23;;
19127;SDS011;9696;53.686;10.094;2023-11-19T11:21:29;21.83;;;3.53;;
19127;SDS011;9696;53.686;10.094;2023-11-19T11:24:18;22.77;;;3.63;;
19127;SDS011;9696;53.686;10.094;2023-11-19T11:27:24;25.67;;;3.40;;
19127;SDS011;9696;53.686;10.094;2023-11-19T11:30:09;23.30;;;3.53;;
19127;SDS011;9696;53.686;10.094;2023-11-19T11:32:50;23.60;;;3.23;;
19127;SDS011;9696;53.686;10.094;2023-11-19T11:35:30;20.73;;;3.37;;
19127;SDS011;9696;53.686;10.094;2023-11-19T11:38:12;30.33;;;3.97;;
19127;SDS011;9696;53.686;10.094;2023-11-19T11:40:44;26.20;;;3.63;;
19127;SDS011;9696;53.686;10.094;2023-11-19T11:43:58;21.43;;;3.90;;
19127;SDS011;9696;53.686;10.094;2023-11-19T11:49:26;17.73;;;3.27;;
19127;SDS011;9696;53.686;10.094;2023-11-19T11:52:03;20.75;;;3.40;;
19127;SDS011;9696;53.686;10.094;2023-11-19T11:54:33;23.43;;;3.63;;
19127;SDS011;9696;53.686;10.094;2023-11-19T11:57:05;33.30;;;4.30;;
19127;SDS011;9696;53.686;10.094;2023-11-19T11:59:45;29.60;;;3.80;;
19127;SDS011;9696;53.686;10.094;2023-11-19T12:02:17;25.13;;;3.63;;
19127;SDS011;9696;53.686;10.094;2023-11-19T12:04:51;28.67;;;3.30;;
19127;SDS011;9696;53.686;10.094;2023-11-19T12:07:21;14.17;;;2.87;;
19127;SDS011;9696;53.686;10.094;2023-11-19T12:09:52;23.93;;;4.30;;
19127;SDS011;9696;53.686;10.094;2023-11-19T12:12:35;19.30;;;3.23;;
19127;SDS011;9696;53.686;10.094;2023-11-19T12:15:07;28.10;;;4.07;;
19127;SDS011;9696;53.686;10.094;2023-11-19T12:17:42;29.43;;;3.63;;
19127;SDS011;9696;53.686;10.094;2023-11-19T12:20:21;25.20;;;3.77;;
19127;SDS011;9696;53.686;10.094;2023-11-19T12:22:54;19.07;;;3.47;;
19127;SDS011;9696;53.686;10.094;2023-11-19T12:25:25;27.77;;;4.33;;
19127;SDS011;9696;53.686;10.094;2023-11-19T12:27:55;30.57;;;5.30;;
19127;SDS011;9696;53.686;10.094;2023-11-19T12:30:26;28.33;;;4.27;;
19127;SDS011;9696;53.686;10.094;2023-11-19T12:32:58;25.37;;;3.40;;
19127;SDS011;9696;53.686;10.094;2023-11-19T12:35:35;27.10;;;3.97;;
19127;SDS011;9696;53.686;10.094;2023-11-19T12:38:18;26.33;;;3.37;;
19127;SDS011;9696;53.686;10.094;2023-11-19T12:41:01;21.08;;;3.50;;
19127;SDS011;9696;53.686;10.094;2023-11-19T12:43:33;18.07;;;3.03;;
19127;SDS011;9696;53.686;10.094;2023-11-19T12:46:16;33.87;;;4.77;;
19127;SDS011;9696;53.686;10.094;2023-11-19T12:48:47;18.87;;;2.97;;
19127;SDS011;9696;53.686;10.094;2023-11-19T12:51:21;27.60;;;4.07;;
19127;SDS011;9696;53.686;10.094;2023-11-19T12:53:52;32.13;;;4.10;;
19127;SDS011;9696;53.686;10.094;2023-11-19T12:56:22;25.20;;;3.90;;
19127;SDS011;9696;53.686;10.094;2023-11-19T12:58:51;26.47;;;4.10;;
19127;SDS011;9696;53.686;10.094;2023-11-19T13:01:21;26.60;;;4.70;;
19127;SDS011;9696;53.686;10.094;2023-11-19T13:03:50;20.00;;;3.27;;
19127;SDS011;9696;53.686;10.094;2023-11-19T13:06:22;19.13;;;2.67;;
19127;SDS011;9696;53.686;10.094;2023-11-19T13:08:53;18.43;;;3.10;;
19127;SDS011;9696;53.686;10.094;2023-11-19T13:11:32;31.40;;;4.60;;
19127;SDS011;9696;53.686;10.094;2023-11-19T13:14:09;25.63;;;2.93;;
19127;SDS011;9696;53.686;10.094;2023-11-19T13:16:46;24.50;;;4.40;;
19127;SDS011;9696;53.686;10.094;2023-11-19T13:19:22;26.60;;;3.63;;
19127;SDS011;9696;53.686;10.094;2023-11-19T13:22:05;27.77;;;4.10;;
19127;SDS011;9696;53.686;10.094;2023-11-19T13:24:43;34.17;;;5.10;;
19127;SDS011;9696;53.686;10.094;2023-11-19T13:27:17;17.13;;;2.70;;
19127;SDS011;9696;53.686;10.094;2023-11-19T13:29:55;17.77;;;3.80;;
19127;SDS011;9696;53.686;10.094;2023-11-19T13:32:36;24.93;;;3.30;;
19127;SDS011;9696;53.686;10.094;2023-11-19T13:35:14;30.97;;;4.20;;
19127;SDS011;9696;53.686;10.094;2023-11-19T13:37:56;17.43;;;3.03;;
19127;SDS011;9696;53.686;10.094;2023-11-19T13:40:35;21.37;;;3.17;;
19127;SDS011;9696;53.686;10.094;2023-11-19T13:43:08;13.03;;;2.97;;
19127;SDS011;9696;53.686;10.094;2023-11-19T13:45:48;17.80;;;2.83;;
19127;SDS011;9696;53.686;10.094;2023-11-19T13:48:23;24.07;;;4.40;;
19127;SDS011;9696;53.686;10.094;2023-11-19T13:51:01;32.70;;;3.83;;
19127;SDS011;9696;53.686;10.094;2023-11-19T13:53:42;30.33;;;4.80;;
19127;SDS011;9696;53.686;10.094;2023-11-19T13:56:16;33.30;;;4.37;;
19127;SDS011;9696;53.686;10.094;2023-11-19T13:58:47;27.93;;;5.10;;
19127;SDS011;9696;53.686;10.094;2023-11-19T14:01:20;39.47;;;6.63;;
19127;SDS011;9696;53.686;10.094;2023-11-19T14:03:55;27.80;;;3.87;;
19127;SDS011;9696;53.686;10.094;2023-11-19T14:06:28;26.73;;;3.60;;
19127;SDS011;9696;53.686;10.094;2023-11-19T14:09:06;18.37;;;3.40;;
19127;SDS011;9696;53.686;10.094;2023-11-19T14:11:41;26.90;;;4.13;;
19127;SDS011;9696;53.686;10.094;2023-11-19T14:14:20;20.80;;;3.43;;
19127;SDS011;9696;53.686;10.094;2023-11-19T14:16:49;19.93;;;3.37;;
19127;SDS011;9696;53.686;10.094;2023-11-19T14:19:22;32.93;;;7.33;;
19127;SDS011;9696;53.686;10.094;2023-11-19T14:21:51;25.30;;;4.53;;
19127;SDS011;9696;53.686;10.094;2023-11-19T14:24:22;23.20;;;4.80;;
19127;SDS011;9696;53.686;10.094;2023-11-19T14:26:53;36.87;;;4.33;;
19127;SDS011;9696;53.686;10.094;2023-11-19T14:29:29;18.40;;;3.57;;
19127;SDS011;9696;53.686;10.094;2023-11-19T14:32:06;21.37;;;3.20;;
19127;SDS011;9696;53.686;10.094;2023-11-19T14:34:42;22.27;;;3.07;;
19127;SDS011;9696;53.686;10.094;2023-11-19T14:37:12;17.63;;;2.93;;
19127;SDS011;9696;53.686;10.094;2023-11-19T14:39:43;14.57;;;2.00;;
19127;SDS011;9696;53.686;10.094;2023-11-19T14:42:16;15.87;;;2.80;;
19127;SDS011;9696;53.686;10.094;2023-11-19T14:44:46;12.17;;;2.17;;
19127;SDS011;9696;53.686;10.094;2023-11-19T14:47:17;10.57;;;1.77;;
19127;SDS011;9696;53.686;10.094;2023-11-19T14:49:47;17.00;;;2.37;;
19127;SDS011;9696;53.686;10.094;2023-11-19T14:52:16;11.60;;;2.23;;
19127;SDS011;9696;53.686;10.094;2023-11-19T14:54:49;10.63;;;2.00;;
19127;SDS011;9696;53.686;10.094;2023-11-19T14:57:21;12.83;;;1.93;;
19127;SDS011;9696;53.686;10.094;2023-11-19T14:59:53;9.67;;;1.93;;
19127;SDS011;9696;53.686;10.094;2023-11-19T15:02:24;11.73;;;1.87;;
19127;SDS011;9696;53.686;10.094;2023-11-19T15:04:54;13.27;;;2.30;;
19127;SDS011;9696;53.686;10.094;2023-11-19T15:07:25;11.13;;;2.00;;
19127;SDS011;9696;53.686;10.094;2023-11-19T15:09:57;5.90;;;1.83;;
19127;SDS011;9696;53.686;10.094;2023-11-19T15:12:30;5.80;;;1.50;;
19127;SDS011;9696;53.686;10.094;2023-11-19T15:15:01;4.87;;;1.50;;
19127;SDS011;9696;53.686;10.094;2023-11-19T15:17:32;5.00;;;0.80;;
19127;SDS011;9696;53.686;10.094;2023-11-19T15:20:03;9.63;;;2.00;;
19127;SDS011;9696;53.686;10.094;2023-11-19T15:22:34;5.03;;;0.83;;
19127;SDS011;9696;53.686;10.094;2023-11-19T15:25:06;7.07;;;1.60;;
19127;SDS011;9696;53.686;10.094;2023-11-19T15:27:37;7.00;;;2.17;;
19127;SDS011;9696;53.686;10.094;2023-11-19T15:30:14;1.53;;;1.20;;
19127;SDS011;9696;53.686;10.094;2023-11-19T15:32:44;4.30;;;1.57;;
19127;SDS011;9696;53.686;10.094;2023-11-19T15:35:17;3.23;;;1.03;;
19127;SDS011;9696;53.686;10.094;2023-11-19T15:37:50;3.10;;;1.20;;
19127;SDS011;9696;53.686;10.094;2023-11-19T15:40:21;7.83;;;1.53;;
19127;SDS011;9696;53.686;10.094;2023-11-19T15:42:55;10.33;;;1.43;;
19127;SDS011;9696;53.686;10.094;2023-11-19T15:45:26;10.77;;;2.57;;
19127;SDS011;9696;53.686;10.094;2023-11-19T15:47:56;7.50;;;1.93;;
19127;SDS011;9696;53.686;10.094;2023-11-19T15:50:26;5.17;;;1.70;;
19127;SDS011;9696;53.686;10.094;2023-11-19T15:52:56;4.73;;;1.20;;
19127;SDS011;9696;53.686;10.094;2023-11-19T15:55:27;4.70;;;1.20;;
19127;SDS011;9696;53.686;10.094;2023-11-19T15:58:06;8.97;;;3.20;;
19127;SDS011;9696;53.686;10.094;2023-11-19T16:00:36;7.33;;;2.00;;
19127;SDS011;9696;53.686;10.094;2023-11-19T16:03:07;8.27;;;1.70;;
19127;SDS011;9696;53.686;10.094;2023-11-19T16:05:38;5.57;;;1.67;;
19127;SDS011;9696;53.686;10.094;2023-11-19T16:08:08;9.40;;;2.13;;
19127;SDS011;9696;53.686;10.094;2023-11-19T16:10:40;13.00;;;2.47;;
19127;SDS011;9696;53.686;10.094;2023-11-19T16:13:11;11.70;;;2.00;;
19127;SDS011;9696;53.686;10.094;2023-11-19T16:15:41;4.60;;;1.60;;
19127;SDS011;9696;53.686;10.094;2023-11-19T16:18:12;13.90;;;2.87;;
19127;SDS011;9696;53.686;10.094;2023-11-19T16:20:42;13.40;;;3.17;;